Terminal Aerodrome Forecast
Issued by NWS Wilmington, OH

Current Version | Previous Version | Text Only | Print | Product List | Glossary Off
Versions: 1 2 3 4 5 6 7 8 9 10 11 12 13 14 15 16 17 18 19 20 21 22 23

000
FTUS41 KILN 251700
TAFCMH
TAF
KCMH 251732Z 2518/2618 22017G24KT P6SM FEW045 BKN080 OVC200
     FM252000 22014G21KT P6SM VCSH BKN050
     FM260100 18006KT P6SM BKN120
     FM260700 18007KT P6SM BKN040
     FM261300 21011KT P6SM SCT035=

USA.gov is the U.S. government's official web portal to all federal, state and local government web resources and services.